sensor_id;sensor_type;location;lat;lon;timestamp;P1;durP1;ratioP1;P2;durP2;ratioP2
11004;SDS011;5555;59.622;16.556;2023-08-07T00:00:22;15.43;;;14.03;;
11004;SDS011;5555;59.622;16.556;2023-08-07T00:02:47;16.07;;;14.17;;
11004;SDS011;5555;59.622;16.556;2023-08-07T00:05:13;17.43;;;15.57;;
11004;SDS011;5555;59.622;16.556;2023-08-07T00:07:39;16.97;;;15.23;;
11004;SDS011;5555;59.622;16.556;2023-08-07T00:10:05;18.83;;;17.03;;
11004;SDS011;5555;59.622;16.556;2023-08-07T00:12:32;22.90;;;17.47;;
11004;SDS011;5555;59.622;16.556;2023-08-07T00:14:57;19.80;;;17.73;;
11004;SDS011;5555;59.622;16.556;2023-08-07T00:17:23;27.77;;;21.47;;
11004;SDS011;5555;59.622;16.556;2023-08-07T00:19:48;23.70;;;19.93;;
11004;SDS011;5555;59.622;16.556;2023-08-07T00:22:14;21.00;;;17.40;;
11004;SDS011;5555;59.622;16.556;2023-08-07T00:24:40;18.03;;;16.27;;
11004;SDS011;5555;59.622;16.556;2023-08-07T00:27:05;19.27;;;16.70;;
11004;SDS011;5555;59.622;16.556;2023-08-07T00:29:34;30.97;;;21.17;;
11004;SDS011;5555;59.622;16.556;2023-08-07T00:32:00;20.37;;;18.13;;
11004;SDS011;5555;59.622;16.556;2023-08-07T00:34:26;20.20;;;17.60;;
11004;SDS011;5555;59.622;16.556;2023-08-07T00:36:51;21.93;;;18.30;;
11004;SDS011;5555;59.622;16.556;2023-08-07T00:39:17;20.40;;;18.30;;
11004;SDS011;5555;59.622;16.556;2023-08-07T00:41:42;20.40;;;18.20;;
11004;SDS011;5555;59.622;16.556;2023-08-07T00:44:08;21.37;;;19.20;;
11004;SDS011;5555;59.622;16.556;2023-08-07T00:46:33;21.13;;;18.90;;
11004;SDS011;5555;59.622;16.556;2023-08-07T00:49:00;23.93;;;21.53;;
11004;SDS011;5555;59.622;16.556;2023-08-07T00:51:25;23.03;;;20.60;;
11004;SDS011;5555;59.622;16.556;2023-08-07T00:53:51;26.13;;;21.33;;
11004;SDS011;5555;59.622;16.556;2023-08-07T00:56:17;24.63;;;22.10;;
11004;SDS011;5555;59.622;16.556;2023-08-07T00:58:43;27.13;;;24.33;;
11004;SDS011;5555;59.622;16.556;2023-08-07T01:01:09;29.20;;;24.77;;
11004;SDS011;5555;59.622;16.556;2023-08-07T01:03:35;29.70;;;25.50;;
11004;SDS011;5555;59.622;16.556;2023-08-07T01:06:01;35.73;;;27.77;;
11004;SDS011;5555;59.622;16.556;2023-08-07T01:08:26;29.90;;;26.53;;
11004;SDS011;5555;59.622;16.556;2023-08-07T01:13:51;30.57;;;27.23;;
11004;SDS011;5555;59.622;16.556;2023-08-07T01:16:18;29.10;;;23.80;;
11004;SDS011;5555;59.622;16.556;2023-08-07T01:18:51;26.10;;;23.57;;
11004;SDS011;5555;59.622;16.556;2023-08-07T01:21:18;27.10;;;24.30;;
11004;SDS011;5555;59.622;16.556;2023-08-07T01:23:45;28.97;;;26.00;;
11004;SDS011;5555;59.622;16.556;2023-08-07T01:26:12;30.63;;;27.63;;
11004;SDS011;5555;59.622;16.556;2023-08-07T01:28:38;31.03;;;27.70;;
11004;SDS011;5555;59.622;16.556;2023-08-07T01:31:10;31.80;;;27.50;;
11004;SDS011;5555;59.622;16.556;2023-08-07T01:33:47;29.97;;;26.87;;
11004;SDS011;5555;59.622;16.556;2023-08-07T01:36:35;32.20;;;28.97;;
11004;SDS011;5555;59.622;16.556;2023-08-07T01:39:04;33.07;;;29.90;;
11004;SDS011;5555;59.622;16.556;2023-08-07T01:41:31;33.77;;;29.57;;
11004;SDS011;5555;59.622;16.556;2023-08-07T01:43:58;35.57;;;28.97;;
11004;SDS011;5555;59.622;16.556;2023-08-07T01:46:24;29.90;;;26.87;;
11004;SDS011;5555;59.622;16.556;2023-08-07T01:48:50;28.63;;;25.60;;
11004;SDS011;5555;59.622;16.556;2023-08-07T01:51:15;30.60;;;27.27;;
11004;SDS011;5555;59.622;16.556;2023-08-07T01:53:41;39.80;;;32.27;;
11004;SDS011;5555;59.622;16.556;2023-08-07T01:56:07;30.53;;;27.27;;
11004;SDS011;5555;59.622;16.556;2023-08-07T01:58:32;30.03;;;27.03;;
11004;SDS011;5555;59.622;16.556;2023-08-07T02:00:58;38.07;;;31.40;;
11004;SDS011;5555;59.622;16.556;2023-08-07T02:03:23;32.20;;;28.80;;
11004;SDS011;5555;59.622;16.556;2023-08-07T02:05:49;35.07;;;31.20;;
11004;SDS011;5555;59.622;16.556;2023-08-07T02:08:15;38.13;;;31.10;;
11004;SDS011;5555;59.622;16.556;2023-08-07T02:10:40;31.70;;;28.27;;
11004;SDS011;5555;59.622;16.556;2023-08-07T02:13:06;42.00;;;33.93;;
11004;SDS011;5555;59.622;16.556;2023-08-07T02:15:31;35.93;;;32.07;;
11004;SDS011;5555;59.622;16.556;2023-08-07T02:17:57;29.67;;;26.87;;
11004;SDS011;5555;59.622;16.556;2023-08-07T02:20:24;31.63;;;28.33;;
11004;SDS011;5555;59.622;16.556;2023-08-07T02:22:49;36.60;;;31.37;;
11004;SDS011;5555;59.622;16.556;2023-08-07T02:25:15;28.73;;;25.77;;
11004;SDS011;5555;59.622;16.556;2023-08-07T02:27:41;26.60;;;24.20;;
11004;SDS011;5555;59.622;16.556;2023-08-07T02:30:06;34.63;;;29.67;;
11004;SDS011;5555;59.622;16.556;2023-08-07T02:32:32;28.97;;;26.17;;
11004;SDS011;5555;59.622;16.556;2023-08-07T02:34:58;31.13;;;28.03;;
11004;SDS011;5555;59.622;16.556;2023-08-07T02:37:24;31.70;;;27.83;;
11004;SDS011;5555;59.622;16.556;2023-08-07T02:39:49;28.43;;;25.73;;
11004;SDS011;5555;59.622;16.556;2023-08-07T02:42:15;35.90;;;30.97;;
11004;SDS011;5555;59.622;16.556;2023-08-07T02:44:41;41.70;;;32.97;;
11004;SDS011;5555;59.622;16.556;2023-08-07T02:47:06;35.77;;;30.83;;
11004;SDS011;5555;59.622;16.556;2023-08-07T02:49:32;33.97;;;30.33;;
11004;SDS011;5555;59.622;16.556;2023-08-07T02:51:58;37.00;;;32.30;;
11004;SDS011;5555;59.622;16.556;2023-08-07T02:54:23;38.03;;;31.87;;
11004;SDS011;5555;59.622;16.556;2023-08-07T02:56:49;30.00;;;27.20;;
11004;SDS011;5555;59.622;16.556;2023-08-07T02:59:15;30.83;;;27.73;;
11004;SDS011;5555;59.622;16.556;2023-08-07T03:01:41;32.40;;;29.07;;
11004;SDS011;5555;59.622;16.556;2023-08-07T03:04:08;34.87;;;31.07;;
11004;SDS011;5555;59.622;16.556;2023-08-07T03:06:33;34.40;;;30.93;;
11004;SDS011;5555;59.622;16.556;2023-08-07T03:08:59;35.37;;;31.73;;
11004;SDS011;5555;59.622;16.556;2023-08-07T03:11:25;32.87;;;29.80;;
11004;SDS011;5555;59.622;16.556;2023-08-07T03:13:50;38.33;;;32.17;;
11004;SDS011;5555;59.622;16.556;2023-08-07T03:16:16;33.40;;;30.03;;
11004;SDS011;5555;59.622;16.556;2023-08-07T03:18:42;50.53;;;38.90;;
11004;SDS011;5555;59.622;16.556;2023-08-07T03:21:08;31.33;;;28.40;;
11004;SDS011;5555;59.622;16.556;2023-08-07T03:23:33;36.17;;;32.63;;
11004;SDS011;5555;59.622;16.556;2023-08-07T03:26:17;31.63;;;28.50;;
11004;SDS011;5555;59.622;16.556;2023-08-07T03:28:42;22.73;;;20.83;;
11004;SDS011;5555;59.622;16.556;2023-08-07T03:31:11;26.17;;;23.90;;
11004;SDS011;5555;59.622;16.556;2023-08-07T03:33:36;25.73;;;23.57;;
11004;SDS011;5555;59.622;16.556;2023-08-07T03:36:02;29.17;;;26.47;;
11004;SDS011;5555;59.622;16.556;2023-08-07T03:38:28;28.80;;;26.27;;
11004;SDS011;5555;59.622;16.556;2023-08-07T03:40:53;25.97;;;23.63;;
11004;SDS011;5555;59.622;16.556;2023-08-07T03:43:19;25.00;;;22.87;;
11004;SDS011;5555;59.622;16.556;2023-08-07T03:45:45;24.60;;;22.60;;
11004;SDS011;5555;59.622;16.556;2023-08-07T03:48:10;22.83;;;21.03;;
11004;SDS011;5555;59.622;16.556;2023-08-07T03:50:36;22.43;;;20.73;;
11004;SDS011;5555;59.622;16.556;2023-08-07T03:53:04;23.20;;;21.33;;
11004;SDS011;5555;59.622;16.556;2023-08-07T03:55:32;22.20;;;20.43;;
11004;SDS011;5555;59.622;16.556;2023-08-07T03:57:57;23.70;;;21.67;;
11004;SDS011;5555;59.622;16.556;2023-08-07T04:00:23;23.53;;;21.53;;
11004;SDS011;5555;59.622;16.556;2023-08-07T04:02:49;23.73;;;21.80;;
11004;SDS011;5555;59.622;16.556;2023-08-07T04:05:14;28.60;;;25.90;;
11004;SDS011;5555;59.622;16.556;2023-08-07T04:07:40;23.43;;;21.37;;
11004;SDS011;5555;59.622;16.556;2023-08-07T04:10:05;23.43;;;21.33;;
11004;SDS011;5555;59.622;16.556;2023-08-07T04:12:32;23.17;;;21.27;;
11004;SDS011;5555;59.622;16.556;2023-08-07T04:14:57;23.60;;;21.57;;
11004;SDS011;5555;59.622;16.556;2023-08-07T04:17:23;25.10;;;22.97;;
11004;SDS011;5555;59.622;16.556;2023-08-07T04:19:48;23.60;;;21.70;;
11004;SDS011;5555;59.622;16.556;2023-08-07T04:22:14;25.07;;;22.87;;
11004;SDS011;5555;59.622;16.556;2023-08-07T04:24:40;23.53;;;21.47;;
11004;SDS011;5555;59.622;16.556;2023-08-07T04:27:05;25.37;;;23.23;;
11004;SDS011;5555;59.622;16.556;2023-08-07T04:29:31;23.17;;;21.17;;
11004;SDS011;5555;59.622;16.556;2023-08-07T04:31:56;25.03;;;22.97;;
11004;SDS011;5555;59.622;16.556;2023-08-07T04:34:22;26.50;;;23.90;;
11004;SDS011;5555;59.622;16.556;2023-08-07T04:36:48;26.57;;;24.37;;
11004;SDS011;5555;59.622;16.556;2023-08-07T04:39:16;24.57;;;22.37;;
11004;SDS011;5555;59.622;16.556;2023-08-07T04:41:43;22.70;;;20.90;;
11004;SDS011;5555;59.622;16.556;2023-08-07T04:44:09;25.07;;;22.87;;
11004;SDS011;5555;59.622;16.556;2023-08-07T04:46:34;21.90;;;19.97;;
11004;SDS011;5555;59.622;16.556;2023-08-07T04:49:00;20.53;;;18.83;;
11004;SDS011;5555;59.622;16.556;2023-08-07T04:51:26;22.60;;;20.90;;
11004;SDS011;5555;59.622;16.556;2023-08-07T04:53:53;18.63;;;17.23;;
11004;SDS011;5555;59.622;16.556;2023-08-07T04:56:21;20.50;;;18.97;;
11004;SDS011;5555;59.622;16.556;2023-08-07T04:58:47;20.87;;;19.23;;
11004;SDS011;5555;59.622;16.556;2023-08-07T05:01:13;20.00;;;18.60;;
11004;SDS011;5555;59.622;16.556;2023-08-07T05:03:38;20.00;;;18.60;;
11004;SDS011;5555;59.622;16.556;2023-08-07T05:06:04;18.13;;;16.67;;
11004;SDS011;5555;59.622;16.556;2023-08-07T05:08:30;19.67;;;18.17;;
11004;SDS011;5555;59.622;16.556;2023-08-07T05:10:56;18.07;;;16.67;;
11004;SDS011;5555;59.622;16.556;2023-08-07T05:13:21;18.23;;;16.80;;
11004;SDS011;5555;59.622;16.556;2023-08-07T05:15:47;18.03;;;16.53;;
11004;SDS011;5555;59.622;16.556;2023-08-07T05:18:16;17.30;;;16.10;;
11004;SDS011;5555;59.622;16.556;2023-08-07T05:20:42;16.73;;;15.33;;
11004;SDS011;5555;59.622;16.556;2023-08-07T05:23:08;17.80;;;16.40;;
11004;SDS011;5555;59.622;16.556;2023-08-07T05:25:34;17.23;;;15.97;;
11004;SDS011;5555;59.622;16.556;2023-08-07T05:27:59;17.70;;;15.97;;
11004;SDS011;5555;59.622;16.556;2023-08-07T05:30:25;16.67;;;15.47;;
11004;SDS011;5555;59.622;16.556;2023-08-07T05:32:50;14.80;;;13.80;;
11004;SDS011;5555;59.622;16.556;2023-08-07T05:35:16;15.37;;;14.23;;
11004;SDS011;5555;59.622;16.556;2023-08-07T05:37:42;14.80;;;13.70;;
11004;SDS011;5555;59.622;16.556;2023-08-07T05:40:07;14.27;;;13.07;;
11004;SDS011;5555;59.622;16.556;2023-08-07T05:42:33;14.43;;;13.23;;
11004;SDS011;5555;59.622;16.556;2023-08-07T05:44:59;13.60;;;12.50;;
11004;SDS011;5555;59.622;16.556;2023-08-07T05:47:25;13.87;;;12.87;;
11004;SDS011;5555;59.622;16.556;2023-08-07T05:49:51;13.60;;;12.70;;
11004;SDS011;5555;59.622;16.556;2023-08-07T05:52:17;14.07;;;12.73;;
11004;SDS011;5555;59.622;16.556;2023-08-07T05:54:43;14.50;;;13.20;;
11004;SDS011;5555;59.622;16.556;2023-08-07T05:57:09;13.50;;;12.37;;
11004;SDS011;5555;59.622;16.556;2023-08-07T05:59:35;13.17;;;12.17;;
11004;SDS011;5555;59.622;16.556;2023-08-07T06:02:02;14.20;;;13.00;;
11004;SDS011;5555;59.622;16.556;2023-08-07T06:04:28;12.83;;;11.83;;
11004;SDS011;5555;59.622;16.556;2023-08-07T06:06:54;13.27;;;12.37;;
11004;SDS011;5555;59.622;16.556;2023-08-07T06:09:19;12.80;;;11.80;;
11004;SDS011;5555;59.622;16.556;2023-08-07T06:11:46;12.87;;;11.87;;
11004;SDS011;5555;59.622;16.556;2023-08-07T06:14:12;13.23;;;12.20;;
11004;SDS011;5555;59.622;16.556;2023-08-07T06:16:38;13.70;;;12.50;;
11004;SDS011;5555;59.622;16.556;2023-08-07T06:19:04;13.23;;;12.17;;
11004;SDS011;5555;59.622;16.556;2023-08-07T06:21:29;13.50;;;12.10;;
11004;SDS011;5555;59.622;16.556;2023-08-07T06:23:55;12.27;;;11.30;;
11004;SDS011;5555;59.622;16.556;2023-08-07T06:26:22;12.90;;;11.70;;
11004;SDS011;5555;59.622;16.556;2023-08-07T06:28:47;12.80;;;11.70;;
11004;SDS011;5555;59.622;16.556;2023-08-07T06:31:13;13.17;;;12.07;;
11004;SDS011;5555;59.622;16.556;2023-08-07T06:33:40;13.50;;;12.20;;
11004;SDS011;5555;59.622;16.556;2023-08-07T06:36:06;14.43;;;13.10;;
11004;SDS011;5555;59.622;16.556;2023-08-07T06:38:33;14.83;;;13.63;;
11004;SDS011;5555;59.622;16.556;2023-08-07T06:40:59;15.90;;;14.60;;
11004;SDS011;5555;59.622;16.556;2023-08-07T06:43:24;15.43;;;14.33;;
11004;SDS011;5555;59.622;16.556;2023-08-07T06:45:50;16.40;;;15.10;;
11004;SDS011;5555;59.622;16.556;2023-08-07T06:48:20;16.40;;;15.10;;
11004;SDS011;5555;59.622;16.556;2023-08-07T06:50:46;15.30;;;14.10;;
11004;SDS011;5555;59.622;16.556;2023-08-07T06:53:12;15.00;;;13.80;;
11004;SDS011;5555;59.622;16.556;2023-08-07T06:55:38;15.73;;;14.43;;
11004;SDS011;5555;59.622;16.556;2023-08-07T06:58:04;15.47;;;14.27;;
11004;SDS011;5555;59.622;16.556;2023-08-07T07:00:29;14.73;;;13.40;;
11004;SDS011;5555;59.622;16.556;2023-08-07T07:02:55;15.27;;;14.07;;
11004;SDS011;5555;59.622;16.556;2023-08-07T07:05:20;14.87;;;13.83;;
11004;SDS011;5555;59.622;16.556;2023-08-07T07:07:46;15.43;;;14.10;;
11004;SDS011;5555;59.622;16.556;2023-08-07T07:10:12;15.40;;;14.10;;
11004;SDS011;5555;59.622;16.556;2023-08-07T07:12:37;17.17;;;15.97;;
11004;SDS011;5555;59.622;16.556;2023-08-07T07:15:03;16.13;;;14.73;;
11004;SDS011;5555;59.622;16.556;2023-08-07T07:17:29;16.83;;;15.63;;
11004;SDS011;5555;59.622;16.556;2023-08-07T07:19:55;18.07;;;16.57;;
11004;SDS011;5555;59.622;16.556;2023-08-07T07:22:21;18.13;;;16.67;;
11004;SDS011;5555;59.622;16.556;2023-08-07T07:24:47;18.77;;;17.30;;
11004;SDS011;5555;59.622;16.556;2023-08-07T07:27:13;19.30;;;17.73;;
11004;SDS011;5555;59.622;16.556;2023-08-07T07:29:38;19.33;;;17.67;;
11004;SDS011;5555;59.622;16.556;2023-08-07T07:32:04;19.30;;;17.73;;
11004;SDS011;5555;59.622;16.556;2023-08-07T07:34:30;18.93;;;17.33;;
11004;SDS011;5555;59.622;16.556;2023-08-07T07:36:58;19.20;;;17.47;;
11004;SDS011;5555;59.622;16.556;2023-08-07T07:39:23;19.27;;;17.83;;
11004;SDS011;5555;59.622;16.556;2023-08-07T07:41:49;18.77;;;17.27;;
11004;SDS011;5555;59.622;16.556;2023-08-07T07:44:14;18.50;;;17.03;;
11004;SDS011;5555;59.622;16.556;2023-08-07T07:46:40;17.70;;;16.30;;
11004;SDS011;5555;59.622;16.556;2023-08-07T07:49:06;17.73;;;16.03;;
11004;SDS011;5555;59.622;16.556;2023-08-07T07:51:31;18.23;;;16.53;;
11004;SDS011;5555;59.622;16.556;2023-08-07T07:53:57;19.37;;;17.50;;
11004;SDS011;5555;59.622;16.556;2023-08-07T07:56:23;17.37;;;15.97;;
11004;SDS011;5555;59.622;16.556;2023-08-07T07:58:49;17.17;;;15.70;;
11004;SDS011;5555;59.622;16.556;2023-08-07T08:01:15;16.93;;;15.57;;
11004;SDS011;5555;59.622;16.556;2023-08-07T08:03:40;16.97;;;15.60;;
11004;SDS011;5555;59.622;16.556;2023-08-07T08:06:08;17.43;;;16.03;;
11004;SDS011;5555;59.622;16.556;2023-08-07T08:08:34;18.20;;;16.50;;
11004;SDS011;5555;59.622;16.556;2023-08-07T08:11:00;17.57;;;16.10;;
11004;SDS011;5555;59.622;16.556;2023-08-07T08:13:26;17.23;;;15.83;;
11004;SDS011;5555;59.622;16.556;2023-08-07T08:15:51;18.60;;;16.90;;
11004;SDS011;5555;59.622;16.556;2023-08-07T08:18:17;19.07;;;17.40;;
11004;SDS011;5555;59.622;16.556;2023-08-07T08:20:42;18.90;;;17.30;;
11004;SDS011;5555;59.622;16.556;2023-08-07T08:23:08;20.80;;;18.70;;
11004;SDS011;5555;59.622;16.556;2023-08-07T08:25:34;20.53;;;18.70;;
11004;SDS011;5555;59.622;16.556;2023-08-07T08:27:59;22.43;;;20.40;;
11004;SDS011;5555;59.622;16.556;2023-08-07T08:30:25;23.20;;;21.33;;
11004;SDS011;5555;59.622;16.556;2023-08-07T08:32:51;22.50;;;20.70;;
11004;SDS011;5555;59.622;16.556;2023-08-07T08:35:17;24.30;;;22.20;;
11004;SDS011;5555;59.622;16.556;2023-08-07T08:37:42;25.37;;;23.27;;
11004;SDS011;5555;59.622;16.556;2023-08-07T08:40:08;25.63;;;23.50;;
11004;SDS011;5555;59.622;16.556;2023-08-07T08:42:38;27.30;;;24.83;;
11004;SDS011;5555;59.622;16.556;2023-08-07T08:45:05;29.47;;;26.87;;
11004;SDS011;5555;59.622;16.556;2023-08-07T08:47:36;29.30;;;26.90;;
11004;SDS011;5555;59.622;16.556;2023-08-07T08:50:07;28.00;;;25.50;;
11004;SDS011;5555;59.622;16.556;2023-08-07T08:52:38;29.77;;;27.20;;
11004;SDS011;5555;59.622;16.556;2023-08-07T08:55:06;29.53;;;27.03;;
11004;SDS011;5555;59.622;16.556;2023-08-07T08:57:33;30.13;;;27.63;;
11004;SDS011;5555;59.622;16.556;2023-08-07T09:00:00;30.07;;;27.47;;
11004;SDS011;5555;59.622;16.556;2023-08-07T09:02:31;30.80;;;28.07;;
11004;SDS011;5555;59.622;16.556;2023-08-07T09:04:58;31.03;;;28.10;;
11004;SDS011;5555;59.622;16.556;2023-08-07T09:07:23;32.50;;;29.57;;
11004;SDS011;5555;59.622;16.556;2023-08-07T09:09:51;32.97;;;30.27;;
11004;SDS011;5555;59.622;16.556;2023-08-07T09:12:25;35.67;;;32.63;;
11004;SDS011;5555;59.622;16.556;2023-08-07T09:14:53;33.27;;;30.27;;
11004;SDS011;5555;59.622;16.556;2023-08-07T09:17:25;36.53;;;33.47;;
11004;SDS011;5555;59.622;16.556;2023-08-07T09:19:54;36.57;;;33.50;;
11004;SDS011;5555;59.622;16.556;2023-08-07T09:22:19;40.37;;;36.83;;
11004;SDS011;5555;59.622;16.556;2023-08-07T09:24:46;39.30;;;35.97;;
11004;SDS011;5555;59.622;16.556;2023-08-07T09:27:11;40.03;;;36.80;;
11004;SDS011;5555;59.622;16.556;2023-08-07T09:29:41;41.53;;;37.93;;
11004;SDS011;5555;59.622;16.556;2023-08-07T09:32:14;38.57;;;35.03;;
11004;SDS011;5555;59.622;16.556;2023-08-07T09:34:40;38.40;;;35.13;;
11004;SDS011;5555;59.622;16.556;2023-08-07T09:37:07;36.20;;;33.17;;
11004;SDS011;5555;59.622;16.556;2023-08-07T09:39:33;35.07;;;32.17;;
11004;SDS011;5555;59.622;16.556;2023-08-07T09:42:00;31.53;;;28.73;;
11004;SDS011;5555;59.622;16.556;2023-08-07T09:44:34;29.23;;;26.87;;
11004;SDS011;5555;59.622;16.556;2023-08-07T09:47:01;28.03;;;25.83;;
11004;SDS011;5555;59.622;16.556;2023-08-07T09:49:40;26.53;;;24.23;;
11004;SDS011;5555;59.622;16.556;2023-08-07T09:52:07;25.97;;;23.87;;
11004;SDS011;5555;59.622;16.556;2023-08-07T09:54:34;24.00;;;22.00;;
11004;SDS011;5555;59.622;16.556;2023-08-07T09:57:03;23.47;;;21.37;;
11004;SDS011;5555;59.622;16.556;2023-08-07T09:59:30;23.53;;;21.53;;
11004;SDS011;5555;59.622;16.556;2023-08-07T10:01:58;24.23;;;21.90;;
11004;SDS011;5555;59.622;16.556;2023-08-07T10:04:27;23.33;;;21.33;;
11004;SDS011;5555;59.622;16.556;2023-08-07T10:06:52;22.37;;;20.47;;
11004;SDS011;5555;59.622;16.556;2023-08-07T10:09:18;22.17;;;20.10;;
11004;SDS011;5555;59.622;16.556;2023-08-07T10:11:45;21.73;;;19.93;;
11004;SDS011;5555;59.622;16.556;2023-08-07T10:14:14;23.03;;;21.23;;
11004;SDS011;5555;59.622;16.556;2023-08-07T10:16:40;24.20;;;22.20;;
11004;SDS011;5555;59.622;16.556;2023-08-07T10:19:07;25.57;;;23.43;;
11004;SDS011;5555;59.622;16.556;2023-08-07T10:21:37;23.90;;;21.83;;
11004;SDS011;5555;59.622;16.556;2023-08-07T10:24:04;23.80;;;21.90;;
11004;SDS011;5555;59.622;16.556;2023-08-07T10:26:34;22.43;;;20.63;;
11004;SDS011;5555;59.622;16.556;2023-08-07T10:29:02;22.47;;;20.33;;
11004;SDS011;5555;59.622;16.556;2023-08-07T10:31:32;22.27;;;20.47;;
11004;SDS011;5555;59.622;16.556;2023-08-07T10:34:00;21.73;;;19.77;;
11004;SDS011;5555;59.622;16.556;2023-08-07T10:36:36;20.10;;;18.50;;
11004;SDS011;5555;59.622;16.556;2023-08-07T10:39:07;20.20;;;18.57;;
11004;SDS011;5555;59.622;16.556;2023-08-07T10:41:46;19.87;;;18.20;;
11004;SDS011;5555;59.622;16.556;2023-08-07T10:44:22;21.20;;;19.20;;
11004;SDS011;5555;59.622;16.556;2023-08-07T10:46:56;22.30;;;20.40;;
11004;SDS011;5555;59.622;16.556;2023-08-07T10:49:38;21.30;;;19.27;;
11004;SDS011;5555;59.622;16.556;2023-08-07T10:52:12;20.70;;;18.80;;
11004;SDS011;5555;59.622;16.556;2023-08-07T10:54:45;20.20;;;18.47;;
11004;SDS011;5555;59.622;16.556;2023-08-07T10:57:13;20.50;;;18.50;;
11004;SDS011;5555;59.622;16.556;2023-08-07T11:02:24;21.27;;;19.13;;
11004;SDS011;5555;59.622;16.556;2023-08-07T11:04:51;19.63;;;17.93;;
11004;SDS011;5555;59.622;16.556;2023-08-07T11:07:24;20.50;;;18.53;;
11004;SDS011;5555;59.622;16.556;2023-08-07T11:09:55;19.20;;;17.70;;
11004;SDS011;5555;59.622;16.556;2023-08-07T11:12:25;20.90;;;19.03;;
11004;SDS011;5555;59.622;16.556;2023-08-07T11:14:52;21.50;;;19.60;;
11004;SDS011;5555;59.622;16.556;2023-08-07T11:17:23;22.03;;;20.07;;
11004;SDS011;5555;59.622;16.556;2023-08-07T11:19:50;21.20;;;19.33;;
11004;SDS011;5555;59.622;16.556;2023-08-07T11:22:16;22.33;;;20.43;;
11004;SDS011;5555;59.622;16.556;2023-08-07T11:24:41;22.77;;;20.57;;
11004;SDS011;5555;59.622;16.556;2023-08-07T11:27:07;22.33;;;20.33;;
11004;SDS011;5555;59.622;16.556;2023-08-07T11:29:33;22.03;;;19.93;;
11004;SDS011;5555;59.622;16.556;2023-08-07T11:31:59;23.13;;;21.20;;
11004;SDS011;5555;59.622;16.556;2023-08-07T11:34:25;23.57;;;21.57;;
11004;SDS011;5555;59.622;16.556;2023-08-07T11:36:51;23.77;;;21.70;;
11004;SDS011;5555;59.622;16.556;2023-08-07T11:39:16;24.07;;;21.83;;
11004;SDS011;5555;59.622;16.556;2023-08-07T11:41:44;22.70;;;20.57;;
11004;SDS011;5555;59.622;16.556;2023-08-07T11:44:10;22.87;;;20.60;;
11004;SDS011;5555;59.622;16.556;2023-08-07T11:46:36;22.60;;;20.73;;
11004;SDS011;5555;59.622;16.556;2023-08-07T11:49:02;21.47;;;19.53;;
11004;SDS011;5555;59.622;16.556;2023-08-07T11:51:29;20.97;;;19.13;;
11004;SDS011;5555;59.622;16.556;2023-08-07T11:53:55;19.73;;;17.80;;
11004;SDS011;5555;59.622;16.556;2023-08-07T11:56:24;19.60;;;17.75;;
11004;SDS011;5555;59.622;16.556;2023-08-07T11:58:50;19.13;;;17.35;;
11004;SDS011;5555;59.622;16.556;2023-08-07T12:01:18;17.58;;;16.10;;
11004;SDS011;5555;59.622;16.556;2023-08-07T12:03:52;18.10;;;16.27;;
11004;SDS011;5555;59.622;16.556;2023-08-07T12:06:19;17.70;;;16.10;;
11004;SDS011;5555;59.622;16.556;2023-08-07T12:08:48;16.80;;;15.25;;
11004;SDS011;5555;59.622;16.556;2023-08-07T12:11:17;16.42;;;15.07;;
11004;SDS011;5555;59.622;16.556;2023-08-07T12:13:43;16.95;;;15.40;;
11004;SDS011;5555;59.622;16.556;2023-08-07T12:16:10;16.55;;;15.15;;
11004;SDS011;5555;59.622;16.556;2023-08-07T12:18:42;15.98;;;14.48;;
11004;SDS011;5555;59.622;16.556;2023-08-07T12:21:21;14.55;;;13.35;;
11004;SDS011;5555;59.622;16.556;2023-08-07T12:23:50;14.02;;;12.82;;
11004;SDS011;5555;59.622;16.556;2023-08-07T12:26:19;15.82;;;14.27;;
11004;SDS011;5555;59.622;16.556;2023-08-07T12:28:45;16.50;;;14.90;;
11004;SDS011;5555;59.622;16.556;2023-08-07T12:31:10;16.27;;;14.68;;
11004;SDS011;5555;59.622;16.556;2023-08-07T12:33:36;14.93;;;13.63;;
11004;SDS011;5555;59.622;16.556;2023-08-07T12:36:02;14.77;;;13.57;;
11004;SDS011;5555;59.622;16.556;2023-08-07T12:38:28;12.95;;;11.77;;
11004;SDS011;5555;59.622;16.556;2023-08-07T12:40:54;12.88;;;11.75;;
11004;SDS011;5555;59.622;16.556;2023-08-07T12:43:20;12.77;;;11.85;;
11004;SDS011;5555;59.622;16.556;2023-08-07T12:45:45;12.88;;;11.88;;
11004;SDS011;5555;59.622;16.556;2023-08-07T12:48:11;13.35;;;11.93;;
11004;SDS011;5555;59.622;16.556;2023-08-07T12:50:37;13.20;;;12.02;;
11004;SDS011;5555;59.622;16.556;2023-08-07T12:53:03;12.18;;;11.18;;
11004;SDS011;5555;59.622;16.556;2023-08-07T12:55:29;12.43;;;11.25;;
11004;SDS011;5555;59.622;16.556;2023-08-07T12:57:58;12.13;;;11.07;;
11004;SDS011;5555;59.622;16.556;2023-08-07T13:00:24;12.38;;;11.35;;
11004;SDS011;5555;59.622;16.556;2023-08-07T13:02:51;13.40;;;12.10;;
11004;SDS011;5555;59.622;16.556;2023-08-07T13:05:18;12.70;;;11.45;;
11004;SDS011;5555;59.622;16.556;2023-08-07T13:07:45;13.20;;;12.05;;
11004;SDS011;5555;59.622;16.556;2023-08-07T13:10:13;13.02;;;11.77;;
11004;SDS011;5555;59.622;16.556;2023-08-07T13:12:41;12.93;;;11.88;;
11004;SDS011;5555;59.622;16.556;2023-08-07T13:15:08;13.15;;;12.02;;
11004;SDS011;5555;59.622;16.556;2023-08-07T13:17:38;14.02;;;12.80;;
11004;SDS011;5555;59.622;16.556;2023-08-07T13:20:04;12.85;;;11.75;;
11004;SDS011;5555;59.622;16.556;2023-08-07T13:22:33;12.63;;;11.38;;
11004;SDS011;5555;59.622;16.556;2023-08-07T13:24:59;12.68;;;11.48;;
11004;SDS011;5555;59.622;16.556;2023-08-07T13:27:25;12.45;;;11.32;;
11004;SDS011;5555;59.622;16.556;2023-08-07T13:29:52;13.10;;;11.90;;
11004;SDS011;5555;59.622;16.556;2023-08-07T13:32:17;13.90;;;12.80;;
11004;SDS011;5555;59.622;16.556;2023-08-07T13:34:45;14.65;;;13.23;;
11004;SDS011;5555;59.622;16.556;2023-08-07T13:37:11;13.77;;;12.45;;
11004;SDS011;5555;59.622;16.556;2023-08-07T13:39:36;15.35;;;13.88;;
11004;SDS011;5555;59.622;16.556;2023-08-07T13:42:02;14.20;;;12.85;;
11004;SDS011;5555;59.622;16.556;2023-08-07T13:44:28;13.82;;;12.77;;
11004;SDS011;5555;59.622;16.556;2023-08-07T13:46:54;15.23;;;13.80;;
11004;SDS011;5555;59.622;16.556;2023-08-07T13:49:20;13.13;;;11.88;;
11004;SDS011;5555;59.622;16.556;2023-08-07T13:51:49;13.63;;;12.35;;
11004;SDS011;5555;59.622;16.556;2023-08-07T13:54:15;13.20;;;11.88;;
11004;SDS011;5555;59.622;16.556;2023-08-07T13:56:41;13.88;;;12.68;;
11004;SDS011;5555;59.622;16.556;2023-08-07T13:59:06;13.50;;;12.48;;
11004;SDS011;5555;59.622;16.556;2023-08-07T14:01:34;13.80;;;12.45;;
11004;SDS011;5555;59.622;16.556;2023-08-07T14:04:00;14.85;;;13.40;;
11004;SDS011;5555;59.622;16.556;2023-08-07T14:06:26;13.87;;;12.50;;
11004;SDS011;5555;59.622;16.556;2023-08-07T14:08:52;12.77;;;11.77;;
11004;SDS011;5555;59.622;16.556;2023-08-07T14:11:17;13.48;;;12.30;;
11004;SDS011;5555;59.622;16.556;2023-08-07T14:13:44;11.85;;;10.65;;
11004;SDS011;5555;59.622;16.556;2023-08-07T14:16:11;12.73;;;11.52;;
11004;SDS011;5555;59.622;16.556;2023-08-07T14:18:37;13.87;;;12.60;;
11004;SDS011;5555;59.622;16.556;2023-08-07T14:21:02;12.83;;;11.70;;
11004;SDS011;5555;59.622;16.556;2023-08-07T14:23:28;11.57;;;10.53;;